createdAt,value
2018-11-11T00:00:28.301Z,56.13
2018-11-11T00:02:56.337Z,52.53
2018-11-11T00:05:24.496Z,56.10
2018-11-11T00:07:52.923Z,57.30
2018-11-11T00:10:37.316Z,52.23
2018-11-11T00:13:05.564Z,45.48
2018-11-11T00:15:33.585Z,46.30
2018-11-11T00:18:01.555Z,51.18
2018-11-11T00:20:29.496Z,49.03
2018-11-11T00:22:57.450Z,49.70
2018-11-11T00:25:25.443Z,54.18
2018-11-11T00:27:53.561Z,48.80
2018-11-11T00:30:22.490Z,50.70
2018-11-11T00:32:51.059Z,53.70
2018-11-11T00:35:21.071Z,47.43
2018-11-11T00:37:49.635Z,58.10
2018-11-11T00:40:17.967Z,60.70
2018-11-11T00:42:46.327Z,69.62
2018-11-11T00:45:14.992Z,60.63
2018-11-11T00:47:44.552Z,58.50
2018-11-11T00:50:13.020Z,54.77
2018-11-11T00:52:41.828Z,54.65
2018-11-11T00:55:11.515Z,58.45
2018-11-11T00:57:39.752Z,65.35
2018-11-11T01:00:11.447Z,68.65
2018-11-11T01:02:39.672Z,70.30
2018-11-11T01:05:09.039Z,71.02
2018-11-11T01:07:38.275Z,56.75
2018-11-11T01:10:07.225Z,55.23
2018-11-11T01:12:35.230Z,51.63
2018-11-11T01:15:03.526Z,61.53
2018-11-11T01:17:31.464Z,56.35
2018-11-11T01:19:59.699Z,54.65
2018-11-11T01:22:28.100Z,48.90
2018-11-11T01:24:56.548Z,50.83
2018-11-11T01:27:24.519Z,49.75
2018-11-11T01:29:52.598Z,61.73
2018-11-11T01:32:20.557Z,57.85
2018-11-11T01:34:48.736Z,49.58
2018-11-11T01:37:16.679Z,49.18
2018-11-11T01:39:44.979Z,54.77
2018-11-11T01:42:13.046Z,57.10
2018-11-11T01:44:41.115Z,42.90
2018-11-11T01:47:09.332Z,44.25
2018-11-11T01:49:37.483Z,51.53
2018-11-11T01:52:05.766Z,53.95
2018-11-11T01:54:34.220Z,51.95
2018-11-11T01:57:02.269Z,59.75
2018-11-11T01:59:30.343Z,56.98
2018-11-11T02:01:59.334Z,52.08
2018-11-11T02:04:27.299Z,47.27
2018-11-11T02:06:55.274Z,62.10
2018-11-11T02:09:23.267Z,55.30
2018-11-11T02:11:51.308Z,56.00
2018-11-11T02:14:19.822Z,47.48
2018-11-11T02:16:48.527Z,54.95
2018-11-11T02:19:16.829Z,48.30
2018-11-11T02:21:45.009Z,49.90
2018-11-11T02:24:13.155Z,55.38
2018-11-11T02:26:41.151Z,50.58
2018-11-11T02:29:09.131Z,51.33
2018-11-11T02:31:37.211Z,49.80
2018-11-11T02:34:05.885Z,53.15
2018-11-11T02:36:34.985Z,48.20
2018-11-11T02:39:03.806Z,51.83
2018-11-11T02:41:32.142Z,48.87
2018-11-11T02:44:00.120Z,49.65
2018-11-11T02:46:28.120Z,65.08
2018-11-11T02:48:56.067Z,65.62
2018-11-11T02:51:23.981Z,56.37
2018-11-11T02:53:52.756Z,65.70
2018-11-11T02:56:20.685Z,68.72
2018-11-11T02:58:49.509Z,66.02
2018-11-11T03:01:17.491Z,62.33
2018-11-11T03:03:45.627Z,62.85
2018-11-11T03:06:13.577Z,77.05
2018-11-11T03:08:41.994Z,71.10
2018-11-11T03:11:10.010Z,58.23
2018-11-11T03:13:37.967Z,63.35
2018-11-11T03:16:05.897Z,61.65
2018-11-11T03:18:34.250Z,56.50
2018-11-11T03:21:02.213Z,75.42
2018-11-11T03:23:30.259Z,51.68
2018-11-11T03:25:58.327Z,62.53
2018-11-11T03:28:26.352Z,53.92
2018-11-11T03:30:54.543Z,50.92
2018-11-11T03:33:22.615Z,49.98
2018-11-11T03:35:50.609Z,57.55
2018-11-11T03:38:18.718Z,71.82
2018-11-11T03:40:46.796Z,56.83
2018-11-11T03:43:16.287Z,66.00
2018-11-11T03:45:45.502Z,59.77
2018-11-11T03:48:13.527Z,51.73
2018-11-11T03:50:41.539Z,55.78
2018-11-11T03:53:10.700Z,55.08
2018-11-11T03:55:38.658Z,50.48
2018-11-11T03:58:06.800Z,61.10
2018-11-11T04:00:35.364Z,44.30
2018-11-11T04:03:03.313Z,53.87
2018-11-11T04:05:31.495Z,59.53
2018-11-11T04:08:00.626Z,50.10
2018-11-11T04:10:28.793Z,47.05
2018-11-11T04:12:56.886Z,48.25
2018-11-11T04:15:24.827Z,61.88
2018-11-11T04:17:52.782Z,46.13
2018-11-11T04:20:20.924Z,66.15
2018-11-11T04:22:48.879Z,48.52
2018-11-11T04:25:17.671Z,53.08
2018-11-11T04:27:45.642Z,56.55
2018-11-11T04:30:14.469Z,56.75
2018-11-11T04:32:42.722Z,54.42
2018-11-11T04:35:10.925Z,51.35
2018-11-11T04:37:38.913Z,56.15
2018-11-11T04:40:07.630Z,56.55
2018-11-11T04:42:35.808Z,53.70
2018-11-11T04:45:03.814Z,53.80
2018-11-11T04:47:31.728Z,50.88
2018-11-11T04:49:59.700Z,44.70
2018-11-11T04:52:27.608Z,55.88
2018-11-11T04:54:55.566Z,54.58
2018-11-11T04:57:23.513Z,42.73
2018-11-11T04:59:51.470Z,47.20
2018-11-11T05:02:19.392Z,50.40
2018-11-11T05:04:47.413Z,50.28
2018-11-11T05:07:15.340Z,43.60
2018-11-11T05:09:43.250Z,52.40
2018-11-11T05:12:11.246Z,51.98
2018-11-11T05:14:39.173Z,54.27
2018-11-11T05:17:07.089Z,40.03
2018-11-11T05:19:35.062Z,50.20
2018-11-11T05:22:03.052Z,44.35
2018-11-11T05:24:31.764Z,45.65
2018-11-11T05:26:59.701Z,53.28
2018-11-11T05:29:27.611Z,47.50
2018-11-11T05:31:55.595Z,44.75
2018-11-11T05:34:23.508Z,45.28
2018-11-11T05:36:51.458Z,56.02
2018-11-11T05:39:19.910Z,53.78
2018-11-11T05:41:47.850Z,57.40
2018-11-11T05:44:15.801Z,50.30
2018-11-11T05:46:43.727Z,50.88
2018-11-11T05:49:11.672Z,48.30
2018-11-11T05:51:39.629Z,47.83
2018-11-11T05:54:07.604Z,49.93
2018-11-11T05:56:35.548Z,43.92
2018-11-11T05:59:03.496Z,47.65
2018-11-11T06:01:31.454Z,46.10
2018-11-11T06:03:59.439Z,46.48
2018-11-11T06:06:28.295Z,41.37
2018-11-11T06:08:56.248Z,45.15
2018-11-11T06:11:24.218Z,39.35
2018-11-11T06:13:52.177Z,48.33
2018-11-11T06:16:20.155Z,47.30
2018-11-11T06:18:48.093Z,44.10
2018-11-11T06:21:16.093Z,43.80
2018-11-11T06:23:44.119Z,41.92
2018-11-11T06:26:12.055Z,40.10
2018-11-11T06:28:39.998Z,37.00
2018-11-11T06:31:07.931Z,30.97
2018-11-11T06:33:35.887Z,22.27
2018-11-11T06:36:03.896Z,15.83
2018-11-11T06:38:32.055Z,11.47
2018-11-11T06:41:00.040Z,13.30
2018-11-11T06:43:27.976Z,9.70
2018-11-11T06:45:55.951Z,9.07
2018-11-11T06:48:23.969Z,9.67
2018-11-11T06:50:51.941Z,9.23
2018-11-11T06:53:19.900Z,10.00
2018-11-11T06:55:47.933Z,9.40
2018-11-11T06:58:15.985Z,11.77
2018-11-11T07:00:43.798Z,10.10
2018-11-11T07:03:17.254Z,10.10
2018-11-11T07:05:45.382Z,10.73
2018-11-11T07:08:13.342Z,9.57
2018-11-11T07:10:41.337Z,8.90
2018-11-11T07:13:09.295Z,8.13
2018-11-11T07:15:37.206Z,9.03
2018-11-11T07:18:05.144Z,9.20
2018-11-11T07:20:33.091Z,7.97
2018-11-11T07:23:01.081Z,7.50
2018-11-11T07:25:29.035Z,8.20
2018-11-11T07:27:57.298Z,8.03
2018-11-11T07:30:25.339Z,7.87
2018-11-11T07:32:53.270Z,8.50
2018-11-11T07:35:21.235Z,7.87
2018-11-11T07:37:49.277Z,7.90
2018-11-11T07:40:17.268Z,8.27
2018-11-11T07:42:46.150Z,7.93
2018-11-11T07:45:14.158Z,8.63
2018-11-11T07:47:42.701Z,9.87
2018-11-11T07:50:11.159Z,8.03
2018-11-11T07:52:39.137Z,7.30
2018-11-11T07:55:09.379Z,7.70
2018-11-11T07:57:37.328Z,8.03
2018-11-11T08:00:06.933Z,8.03
2018-11-11T08:02:34.875Z,8.03
2018-11-11T08:05:03.000Z,7.83
2018-11-11T08:07:31.056Z,9.07
2018-11-11T08:09:58.977Z,7.00
2018-11-11T08:12:27.047Z,7.97
2018-11-11T08:14:55.009Z,8.23
2018-11-11T08:17:22.980Z,7.47
2018-11-11T08:19:50.970Z,7.80
2018-11-11T08:22:18.918Z,7.47
2018-11-11T08:24:46.852Z,7.27
2018-11-11T08:27:15.573Z,8.50
2018-11-11T08:29:43.523Z,9.00
2018-11-11T08:32:11.549Z,7.87
2018-11-11T08:34:39.483Z,7.60
2018-11-11T08:37:07.422Z,7.77
2018-11-11T08:39:35.378Z,7.30
2018-11-11T08:42:03.380Z,8.27
2018-11-11T08:44:31.383Z,6.30
2018-11-11T08:46:59.427Z,6.43
2018-11-11T08:49:27.502Z,6.67
2018-11-11T08:51:55.496Z,7.30
2018-11-11T08:54:23.514Z,7.10
2018-11-11T08:56:51.511Z,7.63
2018-11-11T08:59:19.771Z,6.90
2018-11-11T09:01:47.918Z,6.23
2018-11-11T09:04:15.919Z,6.23
2018-11-11T09:06:43.871Z,6.70
2018-11-11T09:09:11.858Z,6.17
2018-11-11T09:11:39.857Z,6.93
2018-11-11T09:14:07.905Z,8.43
2018-11-11T09:16:36.249Z,6.90
2018-11-11T09:19:04.399Z,7.53
2018-11-11T09:21:32.447Z,6.33
2018-11-11T09:24:00.373Z,7.30
2018-11-11T09:26:28.313Z,7.37
2018-11-11T09:28:56.276Z,8.07
2018-11-11T09:31:24.226Z,7.10
2018-11-11T09:33:52.246Z,7.07
2018-11-11T09:36:20.180Z,6.37
2018-11-11T09:38:48.220Z,6.10
2018-11-11T09:41:16.239Z,6.97
2018-11-11T09:43:44.229Z,6.30
2018-11-11T09:46:12.174Z,6.97
2018-11-11T09:48:40.123Z,7.40
2018-11-11T09:51:08.150Z,6.30
2018-11-11T09:53:36.135Z,7.50
2018-11-11T09:56:04.159Z,6.40
2018-11-11T09:58:32.213Z,6.83
2018-11-11T10:01:00.178Z,6.90
2018-11-11T10:03:42.811Z,6.80
2018-11-11T10:06:27.378Z,7.73
2018-11-11T10:11:03.320Z,7.30
2018-11-11T10:13:37.012Z,6.70
2018-11-11T10:16:09.041Z,6.20
2018-11-11T10:18:40.151Z,6.40
2018-11-11T10:21:13.256Z,5.37
2018-11-11T10:23:46.187Z,5.70
2018-11-11T10:26:20.102Z,5.60
2018-11-11T10:28:57.419Z,6.27
2018-11-11T10:31:35.986Z,4.60
2018-11-11T10:34:09.523Z,6.03
2018-11-11T10:36:48.643Z,5.47
2018-11-11T10:39:22.204Z,5.37
2018-11-11T10:42:53.455Z,6.07
2018-11-11T10:45:32.389Z,5.40
2018-11-11T10:48:05.648Z,4.97
2018-11-11T10:50:43.289Z,5.60
2018-11-11T10:53:11.288Z,4.90
2018-11-11T10:55:39.332Z,5.27
2018-11-11T10:58:07.290Z,4.63
2018-11-11T11:00:42.222Z,5.00
2018-11-11T11:03:15.675Z,4.83
2018-11-11T11:05:45.028Z,4.77
2018-11-11T11:08:13.187Z,7.03
2018-11-11T11:10:41.203Z,4.67
2018-11-11T11:13:09.320Z,5.27
2018-11-11T11:15:37.294Z,4.83
2018-11-11T11:18:05.252Z,6.13
2018-11-11T11:20:33.405Z,4.93
2018-11-11T11:23:01.411Z,5.00
2018-11-11T11:25:29.617Z,6.70
2018-11-11T11:27:57.598Z,4.47
2018-11-11T11:30:25.562Z,4.47
2018-11-11T11:32:53.535Z,4.33
2018-11-11T11:35:21.557Z,4.60
2018-11-11T11:37:49.616Z,5.53
2018-11-11T11:40:18.322Z,5.00
2018-11-11T11:42:46.305Z,4.93
2018-11-11T11:45:14.992Z,5.77
2018-11-11T11:47:43.082Z,4.60
2018-11-11T11:50:12.330Z,5.23
2018-11-11T11:52:42.224Z,5.00
2018-11-11T11:55:10.889Z,4.00
2018-11-11T11:57:39.070Z,6.63
2018-11-11T12:00:12.741Z,4.83
2018-11-11T12:02:40.999Z,4.20
2018-11-11T12:05:13.078Z,8.90
2018-11-11T12:07:41.104Z,4.80
2018-11-11T12:10:09.776Z,3.90
2018-11-11T12:12:38.080Z,3.23
2018-11-11T12:15:06.905Z,4.20
2018-11-11T12:17:35.294Z,4.23
2018-11-11T12:20:09.934Z,4.37
2018-11-11T12:22:37.977Z,3.50
2018-11-11T12:25:07.358Z,6.50
2018-11-11T12:27:35.396Z,3.97
2018-11-11T12:30:03.804Z,3.63
2018-11-11T12:32:34.034Z,3.70
2018-11-11T12:35:02.552Z,3.50
2018-11-11T12:37:31.179Z,3.30
2018-11-11T12:39:59.418Z,4.20
2018-11-11T12:42:27.417Z,4.57
2018-11-11T12:44:56.188Z,3.40
2018-11-11T12:47:24.160Z,4.40
2018-11-11T12:49:52.455Z,3.03
2018-11-11T12:52:21.024Z,6.17
2018-11-11T12:54:49.088Z,2.90
2018-11-11T12:57:17.287Z,3.37
2018-11-11T12:59:47.255Z,3.50
2018-11-11T13:02:15.226Z,4.60
2018-11-11T13:04:43.250Z,6.00
2018-11-11T13:07:11.228Z,3.73
2018-11-11T13:09:39.256Z,2.43
2018-11-11T13:12:07.460Z,3.43
2018-11-11T13:14:35.684Z,3.83
2018-11-11T13:17:03.690Z,4.33
2018-11-11T13:19:32.072Z,2.93
2018-11-11T13:22:00.093Z,4.23
2018-11-11T13:24:28.756Z,2.83
2018-11-11T13:26:56.772Z,4.13
2018-11-11T13:29:24.816Z,3.50
2018-11-11T13:31:52.985Z,4.47
2018-11-11T13:34:20.945Z,3.43
2018-11-11T13:36:48.928Z,4.30
2018-11-11T13:39:16.855Z,4.10
2018-11-11T13:41:44.795Z,3.53
2018-11-11T13:44:12.796Z,3.27
2018-11-11T13:46:40.897Z,3.63
2018-11-11T13:49:08.737Z,4.53
2018-11-11T13:51:37.433Z,2.80
2018-11-11T13:54:05.622Z,4.90
2018-11-11T13:56:33.565Z,2.60
2018-11-11T13:59:01.651Z,3.20
2018-11-11T14:01:30.042Z,3.03
2018-11-11T14:03:58.119Z,3.10
2018-11-11T14:06:26.667Z,4.37
2018-11-11T14:08:54.716Z,2.13
2018-11-11T14:11:22.712Z,2.50
2018-11-11T14:13:50.686Z,4.50
2018-11-11T14:16:18.747Z,2.03
2018-11-11T14:18:46.929Z,4.70
2018-11-11T14:21:14.835Z,4.20
2018-11-11T14:23:42.781Z,6.20
2018-11-11T14:26:10.984Z,5.20
2018-11-11T14:28:38.999Z,3.90
2018-11-11T14:31:07.466Z,2.50
2018-11-11T14:33:35.726Z,1.63
2018-11-11T14:36:03.809Z,6.87
2018-11-11T14:38:32.078Z,1.70
2018-11-11T14:41:00.041Z,2.00
2018-11-11T14:43:28.069Z,2.03
2018-11-11T14:45:56.066Z,4.93
2018-11-11T14:48:25.116Z,4.40
2018-11-11T14:50:53.267Z,10.20
2018-11-11T14:53:21.268Z,4.60
2018-11-11T14:55:49.233Z,3.73
2018-11-11T14:58:17.272Z,2.80
2018-11-11T15:00:45.271Z,3.53
2018-11-11T15:03:16.038Z,2.27
2018-11-11T15:05:44.128Z,2.03
2018-11-11T15:08:12.155Z,2.80
2018-11-11T15:10:40.197Z,2.63
2018-11-11T15:13:08.852Z,2.33
2018-11-11T15:15:36.942Z,2.70
2018-11-11T15:18:05.160Z,2.50
2018-11-11T15:20:33.513Z,3.30
2018-11-11T15:23:01.722Z,3.30
2018-11-11T15:25:30.571Z,3.23
2018-11-11T15:27:58.458Z,2.07
2018-11-11T15:30:28.747Z,5.47
2018-11-11T15:32:57.268Z,2.70
2018-11-11T15:35:25.248Z,4.63
2018-11-11T15:37:53.335Z,3.53
2018-11-11T15:40:22.765Z,3.50
2018-11-11T15:42:50.838Z,5.50
2018-11-11T15:45:22.383Z,4.40
2018-11-11T15:47:53.421Z,4.90
2018-11-11T15:50:23.766Z,4.63
2018-11-11T15:52:53.122Z,5.53
2018-11-11T15:55:22.289Z,4.40
2018-11-11T15:57:51.220Z,8.17
2018-11-11T16:00:20.657Z,6.53
2018-11-11T16:02:49.176Z,7.20
2018-11-11T16:05:18.116Z,8.47
2018-11-11T16:07:46.927Z,11.47
2018-11-11T16:10:18.822Z,9.53
2018-11-11T16:12:47.163Z,6.10
2018-11-11T16:15:16.968Z,5.87
2018-11-11T16:17:46.025Z,6.60
2018-11-11T16:20:16.277Z,6.60
2018-11-11T16:22:45.505Z,6.30
2018-11-11T16:25:13.570Z,6.57
2018-11-11T16:27:42.635Z,6.60
2018-11-11T16:30:12.400Z,8.53
2018-11-11T16:32:40.557Z,7.60
2018-11-11T16:35:10.200Z,8.23
2018-11-11T16:37:39.110Z,9.63
2018-11-11T16:40:08.759Z,12.30
2018-11-11T16:42:36.976Z,10.87
2018-11-11T16:45:05.537Z,10.10
2018-11-11T16:47:33.492Z,8.77
2018-11-11T16:50:01.915Z,10.33
2018-11-11T16:52:29.915Z,8.70
2018-11-11T16:54:57.914Z,9.57
2018-11-11T16:57:26.959Z,8.53
2018-11-11T16:59:55.275Z,10.10
2018-11-11T17:02:23.312Z,8.93
2018-11-11T17:04:51.305Z,10.20
2018-11-11T17:07:19.340Z,12.00
2018-11-11T17:09:49.573Z,12.73
2018-11-11T17:12:17.626Z,10.80
2018-11-11T17:14:45.737Z,10.07
2018-11-11T17:17:13.763Z,10.53
2018-11-11T17:19:41.810Z,13.80
2018-11-11T17:22:10.243Z,9.37
2018-11-11T17:24:37.916Z,10.90
2018-11-11T17:27:05.971Z,14.50
2018-11-11T17:29:34.008Z,10.00
2018-11-11T17:32:04.410Z,11.80
2018-11-11T17:34:32.457Z,11.37
2018-11-11T17:37:00.427Z,11.57
2018-11-11T17:39:28.393Z,9.40
2018-11-11T17:41:56.934Z,15.50
2018-11-11T17:44:25.123Z,10.33
2018-11-11T17:46:53.189Z,14.37
2018-11-11T17:49:21.239Z,15.93
2018-11-11T17:51:49.661Z,13.17
2018-11-11T17:54:17.776Z,14.93
2018-11-11T17:56:45.912Z,9.83
2018-11-11T17:59:14.027Z,10.63
2018-11-11T18:01:42.098Z,12.00
2018-11-11T18:04:10.128Z,13.53
2018-11-11T18:06:38.117Z,10.20
2018-11-11T18:09:07.317Z,10.10
2018-11-11T18:11:35.389Z,19.50
2018-11-11T18:14:03.593Z,12.60
2018-11-11T18:16:31.556Z,13.73
2018-11-11T18:18:59.616Z,9.77
2018-11-11T18:21:32.475Z,12.57
2018-11-11T18:24:00.968Z,13.70
2018-11-11T18:26:29.023Z,12.23
2018-11-11T18:28:57.063Z,10.43
2018-11-11T18:31:25.167Z,16.40
2018-11-11T18:33:53.183Z,12.90
2018-11-11T18:36:21.201Z,12.87
2018-11-11T18:38:52.520Z,12.40
2018-11-11T18:41:20.964Z,13.37
2018-11-11T18:43:49.036Z,12.40
2018-11-11T18:46:17.062Z,12.10
2018-11-11T18:48:45.041Z,11.20
2018-11-11T18:51:13.016Z,12.90
2018-11-11T18:53:41.072Z,10.67
2018-11-11T18:56:09.111Z,10.73
2018-11-11T18:58:53.773Z,13.00
2018-11-11T19:01:33.444Z,13.33
2018-11-11T19:04:04.751Z,13.10
2018-11-11T19:06:32.956Z,12.23
2018-11-11T19:09:00.972Z,14.10
2018-11-11T19:11:28.971Z,13.93
2018-11-11T19:13:57.095Z,12.80
2018-11-11T19:16:25.118Z,14.53
2018-11-11T19:18:53.194Z,14.97
2018-11-11T19:21:21.305Z,14.23
2018-11-11T19:23:49.440Z,11.37
2018-11-11T19:26:17.405Z,13.03
2018-11-11T19:28:45.703Z,16.07
2018-11-11T19:31:13.922Z,15.20
2018-11-11T19:33:42.951Z,16.17
2018-11-11T19:36:12.069Z,13.87
2018-11-11T19:38:41.032Z,17.30
2018-11-11T19:41:09.136Z,13.57
2018-11-11T19:43:37.284Z,17.10
2018-11-11T19:46:05.589Z,14.30
2018-11-11T19:48:33.666Z,18.80
2018-11-11T19:51:01.722Z,13.30
2018-11-11T19:53:29.959Z,12.23
2018-11-11T19:55:58.017Z,13.33
2018-11-11T19:58:26.077Z,14.77
2018-11-11T20:00:54.261Z,14.30
2018-11-11T20:03:22.489Z,14.10
2018-11-11T20:05:50.643Z,16.40
2018-11-11T20:08:18.675Z,12.70
2018-11-11T20:10:46.775Z,11.53
2018-11-11T20:13:15.069Z,11.57
2018-11-11T20:15:43.236Z,19.73
2018-11-11T20:18:11.505Z,11.50
2018-11-11T20:20:39.976Z,15.83
2018-11-11T20:23:07.975Z,12.27
2018-11-11T20:25:36.148Z,10.93
2018-11-11T20:28:04.415Z,12.17
2018-11-11T20:30:34.122Z,18.20
2018-11-11T20:33:02.609Z,12.13
2018-11-11T20:35:31.368Z,14.27
2018-11-11T20:37:59.554Z,13.67
2018-11-11T20:40:28.229Z,13.27
2018-11-11T20:42:56.801Z,13.50
2018-11-11T20:45:26.365Z,14.80
2018-11-11T20:47:55.431Z,13.93
2018-11-11T20:50:25.628Z,13.40
2018-11-11T20:53:08.446Z,13.90
2018-11-11T20:55:36.516Z,14.10
2018-11-11T20:58:04.789Z,12.23
2018-11-11T21:00:35.107Z,21.50
2018-11-11T21:03:03.280Z,15.73
2018-11-11T21:05:31.360Z,16.17
2018-11-11T21:07:59.520Z,15.30
2018-11-11T21:10:37.765Z,15.40
2018-11-11T21:13:05.775Z,11.87
2018-11-11T21:15:33.952Z,13.07
2018-11-11T21:18:01.975Z,11.23
2018-11-11T21:20:31.296Z,13.90
2018-11-11T21:22:59.418Z,16.70
2018-11-11T21:25:27.431Z,12.30
2018-11-11T21:27:55.423Z,13.10
2018-11-11T21:30:24.858Z,13.00
2018-11-11T21:32:52.869Z,13.93
2018-11-11T21:35:21.915Z,14.83
2018-11-11T21:37:50.025Z,14.80
2018-11-11T21:40:22.858Z,16.40
2018-11-11T21:43:04.022Z,14.10
2018-11-11T21:45:32.052Z,14.93
2018-11-11T21:48:00.090Z,11.40
2018-11-11T21:50:28.411Z,10.63
2018-11-11T21:53:02.401Z,11.57
2018-11-11T21:55:30.337Z,13.37
2018-11-11T21:57:58.291Z,16.20
2018-11-11T22:00:26.361Z,13.87
2018-11-11T22:02:54.350Z,12.10
2018-11-11T22:05:22.392Z,15.73
2018-11-11T22:07:50.342Z,13.93
2018-11-11T22:10:18.332Z,14.93
2018-11-11T22:12:46.358Z,10.47
2018-11-11T22:15:14.315Z,12.43
2018-11-11T22:17:42.320Z,15.57
2018-11-11T22:20:10.874Z,11.90
2018-11-11T22:22:38.952Z,11.57
2018-11-11T22:25:07.042Z,14.13
2018-11-11T22:27:35.402Z,16.00
2018-11-11T22:30:03.568Z,20.13
2018-11-11T22:32:31.583Z,16.37
2018-11-11T22:34:59.554Z,15.10
2018-11-11T22:37:27.587Z,18.57
2018-11-11T22:39:55.581Z,17.17
2018-11-11T22:42:23.687Z,17.27
2018-11-11T22:44:51.570Z,14.90
2018-11-11T22:47:19.523Z,21.13
2018-11-11T22:49:47.543Z,15.20
2018-11-11T22:52:15.511Z,12.33
2018-11-11T22:54:43.494Z,14.03
2018-11-11T22:57:11.454Z,15.13
2018-11-11T22:59:39.415Z,12.43
2018-11-11T23:02:07.500Z,15.60
2018-11-11T23:04:35.470Z,16.67
2018-11-11T23:07:03.502Z,16.43
2018-11-11T23:09:31.457Z,17.27
2018-11-11T23:11:59.432Z,14.90
2018-11-11T23:14:27.438Z,13.73
2018-11-11T23:16:55.422Z,19.00
2018-11-11T23:19:23.397Z,15.10
2018-11-11T23:21:51.388Z,20.17
2018-11-11T23:24:19.370Z,18.47
2018-11-11T23:26:47.333Z,18.80
2018-11-11T23:29:15.266Z,16.00
2018-11-11T23:31:43.223Z,19.37
2018-11-11T23:34:11.200Z,17.03
2018-11-11T23:36:39.187Z,15.27
2018-11-11T23:39:07.958Z,16.07
2018-11-11T23:41:35.879Z,18.70
2018-11-11T23:44:04.130Z,17.37
2018-11-11T23:46:32.084Z,16.73
2018-11-11T23:49:00.078Z,14.83
2018-11-11T23:51:28.119Z,15.77
2018-11-11T23:53:56.138Z,20.87
2018-11-11T23:56:24.077Z,16.53
2018-11-11T23:58:51.995Z,13.93
